createdAt,value
2019-05-06T00:00:27.264Z,3.12
2019-05-06T00:02:56.589Z,3.14
2019-05-06T00:05:25.902Z,3.12
2019-05-06T00:07:55.287Z,3.12
2019-05-06T00:10:26.732Z,3.08
2019-05-06T00:12:56.528Z,3.02
2019-05-06T00:15:26.079Z,2.95
2019-05-06T00:17:55.481Z,2.89
2019-05-06T00:20:24.858Z,2.83
2019-05-06T00:22:56.980Z,2.75
2019-05-06T00:25:44.143Z,2.64
2019-05-06T00:28:34.010Z,2.56
2019-05-06T00:31:12.916Z,2.44
2019-05-06T00:33:36.451Z,2.42
2019-05-06T00:36:06.076Z,2.36
2019-05-06T00:38:36.217Z,2.30
2019-05-06T00:41:07.885Z,2.29
2019-05-06T00:43:37.166Z,2.24
2019-05-06T00:46:10.094Z,2.14
2019-05-06T00:48:39.389Z,2.07
2019-05-06T00:51:08.894Z,2.00
2019-05-06T00:53:44.085Z,1.90
2019-05-06T00:56:14.029Z,1.89
2019-05-06T00:58:50.917Z,1.87
2019-05-06T01:01:27.003Z,1.79
2019-05-06T01:03:53.571Z,1.76
2019-05-06T01:06:24.676Z,1.68
2019-05-06T01:08:55.074Z,1.64
2019-05-06T01:11:24.442Z,1.55
2019-05-06T01:14:00.002Z,1.49
2019-05-06T01:16:29.506Z,1.44
2019-05-06T01:18:58.761Z,1.39
2019-05-06T01:21:28.068Z,1.33
2019-05-06T01:23:57.574Z,1.28
2019-05-06T01:26:26.897Z,1.27
2019-05-06T01:28:56.192Z,1.23
2019-05-06T01:31:39.525Z,1.23
2019-05-06T01:33:56.711Z,1.19
2019-05-06T01:36:26.279Z,1.14
2019-05-06T01:39:17.521Z,1.08
2019-05-06T01:42:05.984Z,1.02
2019-05-06T01:44:35.352Z,0.95
2019-05-06T01:47:04.641Z,0.93
2019-05-06T01:49:34.192Z,0.88
2019-05-06T01:52:04.134Z,0.83
2019-05-06T01:54:34.333Z,0.81
2019-05-06T01:57:04.564Z,0.84
2019-05-06T01:59:34.296Z,0.82
2019-05-06T02:02:04.581Z,0.79
2019-05-06T02:04:34.035Z,0.76
2019-05-06T02:07:03.962Z,0.71
2019-05-06T02:09:34.237Z,0.70
2019-05-06T02:12:04.784Z,0.69
2019-05-06T02:14:34.366Z,0.66
2019-05-06T02:17:03.835Z,0.66
2019-05-06T02:19:34.747Z,0.65
2019-05-06T02:22:09.755Z,0.67
2019-05-06T02:24:43.968Z,0.59
2019-05-06T02:27:13.938Z,0.56
2019-05-06T02:29:54.284Z,0.57
2019-05-06T02:32:35.930Z,0.56
2019-05-06T02:35:26.291Z,0.55
2019-05-06T02:37:55.169Z,0.56
2019-05-06T02:40:27.649Z,0.72
2019-05-06T02:42:57.245Z,0.82
2019-05-06T02:45:26.619Z,0.85
2019-05-06T02:48:06.498Z,0.84
2019-05-06T02:50:53.968Z,0.88
2019-05-06T02:53:25.461Z,1.01
2019-05-06T02:55:54.713Z,1.10
2019-05-06T02:58:24.087Z,1.11
2019-05-06T03:00:54.097Z,1.13
2019-05-06T03:03:23.571Z,1.16
2019-05-06T03:05:53.423Z,1.31
2019-05-06T03:08:23.850Z,1.40
2019-05-06T03:10:53.715Z,1.46
2019-05-06T03:13:23.817Z,1.52
2019-05-06T03:15:54.313Z,1.56
2019-05-06T03:18:24.016Z,1.58
2019-05-06T03:21:13.768Z,1.71
2019-05-06T03:23:46.716Z,1.80
2019-05-06T03:26:16.544Z,1.81
2019-05-06T03:28:45.798Z,1.83
2019-05-06T03:31:17.051Z,1.90
2019-05-06T03:34:09.227Z,1.90
2019-05-06T03:36:25.686Z,1.88
2019-05-06T03:38:49.050Z,1.87
2019-05-06T03:41:18.392Z,1.94
2019-05-06T03:43:47.680Z,1.94
2019-05-06T03:46:27.576Z,1.93
2019-05-06T03:49:03.528Z,1.91
2019-05-06T03:51:34.285Z,1.91
2019-05-06T03:54:04.527Z,2.09
2019-05-06T03:56:34.883Z,2.56
2019-05-06T03:59:05.519Z,3.11
2019-05-06T04:01:34.832Z,3.75
2019-05-06T04:04:04.395Z,4.20
2019-05-06T04:06:34.076Z,4.42
2019-05-06T04:09:05.687Z,4.74
2019-05-06T04:11:36.397Z,5.05
2019-05-06T04:14:07.277Z,5.10
2019-05-06T04:16:46.270Z,5.05
2019-05-06T04:19:20.005Z,4.86
2019-05-06T04:22:12.854Z,4.77
2019-05-06T04:25:04.390Z,4.85
2019-05-06T04:27:44.734Z,4.93
2019-05-06T04:30:14.253Z,5.17
2019-05-06T04:32:43.710Z,5.41
2019-05-06T04:35:13.867Z,5.71
2019-05-06T04:37:43.840Z,5.87
2019-05-06T04:40:13.440Z,6.25
2019-05-06T04:42:44.388Z,6.67
2019-05-06T04:45:17.481Z,7.24
2019-05-06T04:47:45.297Z,7.61
2019-05-06T04:50:15.117Z,7.92
2019-05-06T04:52:44.408Z,8.43
2019-05-06T04:55:14.297Z,9.09
2019-05-06T04:57:44.324Z,9.50
2019-05-06T05:00:13.863Z,10.38
2019-05-06T05:02:46.485Z,10.61
2019-05-06T05:05:14.469Z,11.64
2019-05-06T05:07:44.120Z,12.82
2019-05-06T05:10:23.267Z,12.71
2019-05-06T05:13:14.248Z,11.82
2019-05-06T05:16:02.285Z,10.54
2019-05-06T05:18:52.614Z,10.36
2019-05-06T05:21:22.910Z,10.86
2019-05-06T05:23:52.557Z,11.15
2019-05-06T05:26:22.522Z,10.87
2019-05-06T05:28:53.212Z,10.53
2019-05-06T05:31:23.102Z,11.78
2019-05-06T05:33:52.760Z,13.09
2019-05-06T05:36:23.179Z,14.37
2019-05-06T05:38:52.558Z,15.64
2019-05-06T05:41:23.305Z,15.91
2019-05-06T05:44:02.299Z,16.43
2019-05-06T05:46:33.039Z,17.16
2019-05-06T05:49:08.622Z,16.50
2019-05-06T05:51:37.996Z,16.85
2019-05-06T05:54:07.305Z,16.47
2019-05-06T05:56:36.760Z,16.38
2019-05-06T05:59:06.175Z,16.89
2019-05-06T06:01:35.541Z,17.21
2019-05-06T06:04:05.083Z,16.52
2019-05-06T06:06:34.408Z,15.92
2019-05-06T06:09:04.853Z,17.03
2019-05-06T06:11:43.033Z,18.14
2019-05-06T06:14:33.289Z,18.79
2019-05-06T06:17:25.833Z,18.24
2019-05-06T06:19:59.481Z,17.68
2019-05-06T06:22:29.775Z,16.41
2019-05-06T06:24:59.218Z,15.47
2019-05-06T06:27:33.203Z,15.47
2019-05-06T06:30:02.633Z,14.73
2019-05-06T06:32:32.576Z,14.02
2019-05-06T06:35:22.855Z,12.78
2019-05-06T06:38:12.337Z,12.07
2019-05-06T06:40:42.704Z,11.36
2019-05-06T06:43:16.945Z,10.93
2019-05-06T06:45:46.561Z,10.56
2019-05-06T06:48:15.868Z,10.32
2019-05-06T06:50:45.229Z,9.95
2019-05-06T06:53:14.790Z,9.82
2019-05-06T06:55:44.064Z,10.03
2019-05-06T06:58:32.306Z,10.44
2019-05-06T07:01:28.193Z,10.52
2019-05-06T07:04:10.253Z,10.90
2019-05-06T07:06:47.311Z,11.27
2019-05-06T07:09:16.848Z,11.27
2019-05-06T07:11:46.207Z,11.27
2019-05-06T07:14:15.528Z,11.23
2019-05-06T07:16:44.986Z,11.34
2019-05-06T07:19:16.506Z,11.92
2019-05-06T07:21:52.232Z,12.37
2019-05-06T07:24:22.901Z,11.83
2019-05-06T07:26:56.986Z,11.47
2019-05-06T07:29:26.869Z,11.01
2019-05-06T07:31:56.166Z,10.84
2019-05-06T07:34:25.622Z,11.16
2019-05-06T07:36:54.866Z,11.74
2019-05-06T07:39:24.313Z,12.97
2019-05-06T07:41:55.886Z,13.34
2019-05-06T07:44:33.440Z,13.71
2019-05-06T07:47:20.577Z,14.60
2019-05-06T07:49:49.854Z,14.65
2019-05-06T07:52:19.170Z,15.33
2019-05-06T07:54:48.667Z,15.34
2019-05-06T07:57:18.496Z,15.79
2019-05-06T07:59:47.872Z,15.66
2019-05-06T08:02:17.438Z,15.26
2019-05-06T08:04:46.739Z,14.49
2019-05-06T08:07:16.037Z,14.16
2019-05-06T08:09:45.484Z,14.45
2019-05-06T08:12:14.782Z,14.75
2019-05-06T08:14:44.234Z,14.59
2019-05-06T08:17:42.122Z,13.96
2019-05-06T08:20:12.941Z,13.35
2019-05-06T08:22:56.665Z,12.58
2019-05-06T08:25:26.023Z,11.83
2019-05-06T08:27:55.366Z,11.35
2019-05-06T08:30:24.802Z,10.99
2019-05-06T08:32:54.045Z,10.90
2019-05-06T08:35:23.375Z,10.55
2019-05-06T08:37:53.250Z,9.73
2019-05-06T08:40:23.663Z,9.00
2019-05-06T08:42:53.633Z,8.55
2019-05-06T08:45:23.261Z,8.43
2019-05-06T08:47:52.521Z,8.97
2019-05-06T08:50:34.880Z,9.52
2019-05-06T08:53:17.599Z,11.45
2019-05-06T08:55:47.186Z,14.84
2019-05-06T08:58:16.530Z,17.84
2019-05-06T09:00:57.593Z,19.37
2019-05-06T09:03:26.957Z,20.38
2019-05-06T09:05:56.248Z,21.33
2019-05-06T09:08:25.888Z,21.41
2019-05-06T09:10:55.247Z,20.93
2019-05-06T09:13:24.532Z,21.58
2019-05-06T09:15:54.107Z,20.99
2019-05-06T09:18:24.102Z,21.92
2019-05-06T09:20:53.803Z,21.65
2019-05-06T09:23:23.617Z,21.58
2019-05-06T09:25:53.343Z,21.84
2019-05-06T09:28:44.514Z,22.06
2019-05-06T09:31:17.597Z,23.49
2019-05-06T09:33:55.103Z,24.68
2019-05-06T09:36:39.552Z,24.55
2019-05-06T09:38:55.477Z,23.09
2019-05-06T09:41:25.023Z,21.82
2019-05-06T09:43:54.278Z,18.76
2019-05-06T09:46:23.551Z,18.12
2019-05-06T09:49:24.077Z,19.63
2019-05-06T09:51:55.725Z,19.30
2019-05-06T09:54:32.235Z,22.23
2019-05-06T09:57:05.390Z,22.76
2019-05-06T09:59:34.969Z,23.11
2019-05-06T10:02:05.426Z,22.87
2019-05-06T10:04:35.413Z,23.44
2019-05-06T10:07:05.864Z,24.32
2019-05-06T10:09:36.446Z,24.16
2019-05-06T10:12:07.188Z,22.47
2019-05-06T10:14:37.796Z,22.87
2019-05-06T10:17:08.588Z,23.38
2019-05-06T10:19:39.725Z,22.80
2019-05-06T10:22:12.500Z,23.28
2019-05-06T10:24:43.160Z,23.38
2019-05-06T10:27:13.894Z,24.20
2019-05-06T10:29:59.267Z,24.13
2019-05-06T10:32:57.297Z,24.61
2019-05-06T10:35:29.486Z,22.59
2019-05-06T10:38:43.823Z,22.04
2019-05-06T10:41:19.296Z,18.99
2019-05-06T10:44:06.319Z,15.54
2019-05-06T10:46:36.887Z,14.20
2019-05-06T10:49:07.234Z,12.73
2019-05-06T10:51:47.127Z,13.32
2019-05-06T10:54:17.138Z,14.23
2019-05-06T10:57:05.461Z,15.20
2019-05-06T10:59:35.055Z,15.46
2019-05-06T11:02:14.612Z,16.20
2019-05-06T11:04:44.061Z,19.34
2019-05-06T11:07:28.182Z,20.22
2019-05-06T11:09:45.185Z,20.85
2019-05-06T11:12:14.909Z,20.99
2019-05-06T11:14:45.077Z,21.73
2019-05-06T11:17:15.989Z,20.77
2019-05-06T11:19:55.873Z,18.39
2019-05-06T11:22:32.511Z,16.33
2019-05-06T11:25:07.930Z,14.50
2019-05-06T11:27:48.637Z,13.60
2019-05-06T11:30:48.109Z,13.71
2019-05-06T11:33:42.416Z,14.06
2019-05-06T11:36:40.118Z,14.58
2019-05-06T11:39:14.242Z,14.11
2019-05-06T11:41:59.616Z,14.35
2019-05-06T11:44:17.431Z,13.95
2019-05-06T11:46:47.195Z,13.90
2019-05-06T11:49:17.054Z,13.97
2019-05-06T11:51:49.773Z,13.95
2019-05-06T11:54:23.587Z,13.41
2019-05-06T11:56:55.184Z,13.02
2019-05-06T11:59:23.043Z,12.80
2019-05-06T12:02:07.027Z,12.78
2019-05-06T12:04:42.001Z,13.16
2019-05-06T12:07:15.655Z,13.33
2019-05-06T12:09:48.172Z,12.73
2019-05-06T12:12:18.696Z,12.84
2019-05-06T12:14:48.818Z,12.90
2019-05-06T12:17:18.158Z,12.75
2019-05-06T12:19:47.678Z,12.77
2019-05-06T12:22:16.961Z,13.13
2019-05-06T12:24:46.283Z,13.14
2019-05-06T12:27:34.853Z,13.28
2019-05-06T12:30:05.367Z,13.47
2019-05-06T12:32:43.318Z,13.67
2019-05-06T12:35:12.866Z,13.99
2019-05-06T12:37:44.168Z,13.80
2019-05-06T12:40:13.881Z,13.37
2019-05-06T12:42:47.849Z,13.42
2019-05-06T12:45:34.094Z,13.19
2019-05-06T12:48:06.152Z,13.11
2019-05-06T12:50:35.572Z,12.94
2019-05-06T12:53:04.990Z,12.74
2019-05-06T12:55:34.346Z,12.39
2019-05-06T12:58:03.731Z,12.06
2019-05-06T13:00:34.424Z,11.82
2019-05-06T13:03:03.988Z,11.65
2019-05-06T13:05:33.326Z,11.34
2019-05-06T13:08:05.329Z,10.92
2019-05-06T13:10:33.984Z,10.70
2019-05-06T13:13:04.815Z,10.98
2019-05-06T13:15:34.301Z,11.58
2019-05-06T13:18:07.226Z,12.18
2019-05-06T13:20:35.987Z,12.43
2019-05-06T13:23:24.642Z,12.43
2019-05-06T13:25:52.590Z,12.29
2019-05-06T13:28:23.122Z,12.23
2019-05-06T13:30:53.169Z,12.05
2019-05-06T13:33:37.681Z,11.86
2019-05-06T13:36:07.062Z,11.67
2019-05-06T13:38:36.351Z,11.34
2019-05-06T13:41:05.813Z,11.08
2019-05-06T13:43:43.554Z,10.75
2019-05-06T13:46:24.805Z,10.60
2019-05-06T13:49:13.346Z,10.66
2019-05-06T13:51:47.076Z,10.38
2019-05-06T13:54:16.399Z,10.24
2019-05-06T13:56:48.820Z,10.48
2019-05-06T13:59:17.074Z,10.36
2019-05-06T14:02:07.436Z,10.47
2019-05-06T14:04:36.601Z,10.74
2019-05-06T14:07:07.364Z,11.03
2019-05-06T14:09:40.112Z,11.21
2019-05-06T14:12:07.974Z,11.41
2019-05-06T14:14:37.367Z,11.55
2019-05-06T14:17:06.861Z,11.89
2019-05-06T14:19:36.227Z,11.79
2019-05-06T14:22:05.647Z,11.71
2019-05-06T14:24:36.413Z,11.72
2019-05-06T14:27:08.708Z,11.96
2019-05-06T14:29:43.181Z,12.27
2019-05-06T14:32:14.886Z,12.19
2019-05-06T14:34:43.642Z,12.14
2019-05-06T14:37:13.071Z,12.02
2019-05-06T14:39:54.095Z,11.91
2019-05-06T14:42:16.725Z,11.44
2019-05-06T14:44:46.049Z,11.04
2019-05-06T14:47:36.462Z,10.88
2019-05-06T14:50:06.497Z,10.47
2019-05-06T14:52:35.724Z,9.57
2019-05-06T14:55:28.211Z,8.96
2019-05-06T14:57:57.510Z,8.77
2019-05-06T15:00:26.859Z,9.01
2019-05-06T15:02:56.374Z,9.34
2019-05-06T15:05:25.665Z,9.69
2019-05-06T15:07:54.936Z,10.04
2019-05-06T15:10:26.494Z,10.42
2019-05-06T15:12:55.456Z,10.73
2019-05-06T15:15:24.854Z,10.98
2019-05-06T15:17:54.397Z,11.08
2019-05-06T15:20:23.639Z,10.99
2019-05-06T15:22:53.100Z,10.84
2019-05-06T15:25:22.481Z,10.69
2019-05-06T15:27:53.152Z,10.62
2019-05-06T15:30:30.427Z,10.35
2019-05-06T15:32:59.745Z,10.10
2019-05-06T15:35:46.799Z,9.94
2019-05-06T15:38:22.086Z,9.95
2019-05-06T15:40:52.467Z,10.22
2019-05-06T15:43:22.107Z,10.75
2019-05-06T15:45:52.549Z,11.18
2019-05-06T15:48:22.342Z,11.60
2019-05-06T15:50:53.293Z,11.83
2019-05-06T15:53:22.833Z,11.69
2019-05-06T15:55:53.505Z,11.36
2019-05-06T15:58:23.062Z,11.29
2019-05-06T16:00:53.106Z,11.42
2019-05-06T16:03:23.296Z,11.47
2019-05-06T16:05:55.104Z,11.48
2019-05-06T16:08:24.563Z,11.26
2019-05-06T16:10:58.330Z,11.21
2019-05-06T16:13:25.177Z,11.17
2019-05-06T16:15:54.519Z,11.38
2019-05-06T16:18:24.038Z,11.58
2019-05-06T16:20:57.193Z,11.63
2019-05-06T16:23:32.750Z,11.58
2019-05-06T16:26:03.022Z,11.34
2019-05-06T16:28:32.508Z,11.12
2019-05-06T16:31:02.435Z,10.94
2019-05-06T16:33:32.904Z,10.75
2019-05-06T16:36:02.411Z,10.56
2019-05-06T16:38:32.717Z,10.38
2019-05-06T16:41:10.504Z,10.40
2019-05-06T16:43:34.321Z,10.33
2019-05-06T16:46:03.746Z,10.18
2019-05-06T16:48:33.041Z,9.97
2019-05-06T16:51:04.532Z,9.79
2019-05-06T16:53:35.101Z,9.58
2019-05-06T16:56:26.470Z,9.36
2019-05-06T16:58:58.359Z,9.26
2019-05-06T17:01:27.951Z,9.32
2019-05-06T17:04:25.457Z,9.32
2019-05-06T17:06:54.837Z,9.30
2019-05-06T17:09:27.534Z,9.05
2019-05-06T17:11:55.181Z,8.87
2019-05-06T17:14:24.529Z,8.55
2019-05-06T17:16:53.804Z,8.40
2019-05-06T17:19:23.165Z,8.22
2019-05-06T17:21:52.583Z,8.13
2019-05-06T17:24:22.077Z,7.89
2019-05-06T17:26:55.689Z,7.66
2019-05-06T17:29:32.325Z,7.60
2019-05-06T17:32:14.076Z,7.74
2019-05-06T17:34:46.988Z,7.95
2019-05-06T17:37:36.838Z,8.01
2019-05-06T17:40:09.969Z,8.05
2019-05-06T17:42:36.511Z,8.00
2019-05-06T17:45:25.809Z,7.86
2019-05-06T17:48:00.154Z,7.72
2019-05-06T17:50:29.527Z,7.45
2019-05-06T17:52:58.843Z,7.17
2019-05-06T17:55:28.199Z,7.00
2019-05-06T17:57:57.716Z,6.79
2019-05-06T18:00:27.088Z,6.72
2019-05-06T18:02:56.362Z,6.73
2019-05-06T18:05:25.873Z,6.77
2019-05-06T18:07:55.104Z,6.82
2019-05-06T18:10:24.398Z,6.84
2019-05-06T18:12:53.925Z,6.86
2019-05-06T18:15:23.204Z,7.01
2019-05-06T18:17:52.570Z,7.30
2019-05-06T18:20:22.370Z,7.27
2019-05-06T18:22:52.460Z,7.15
2019-05-06T18:25:23.047Z,7.08
2019-05-06T18:30:33.700Z,6.78
2019-05-06T18:32:58.030Z,6.50
2019-05-06T18:35:27.323Z,6.27
2019-05-06T18:37:56.778Z,5.99
2019-05-06T18:40:26.078Z,5.84
2019-05-06T18:42:55.382Z,5.59
2019-05-06T18:45:24.861Z,5.39
2019-05-06T18:47:54.151Z,5.18
2019-05-06T18:50:23.471Z,5.04
2019-05-06T18:52:53.047Z,4.98
2019-05-06T18:55:22.559Z,4.96
2019-05-06T18:57:52.818Z,4.94
2019-05-06T19:00:22.798Z,4.89
2019-05-06T19:02:52.380Z,4.91
2019-05-06T19:05:27.094Z,4.87
2019-05-06T19:07:56.570Z,4.82
2019-05-06T19:10:28.544Z,4.73
2019-05-06T19:12:57.850Z,4.64
2019-05-06T19:15:27.599Z,4.55
2019-05-06T19:17:57.163Z,4.43
2019-05-06T19:20:26.544Z,4.32
2019-05-06T19:22:55.890Z,4.20
2019-05-06T19:25:26.615Z,4.06
2019-05-06T19:27:56.104Z,3.96
2019-05-06T19:30:25.444Z,3.84
2019-05-06T19:32:54.908Z,3.76
2019-05-06T19:35:24.238Z,3.62
2019-05-06T19:37:53.610Z,3.50
2019-05-06T19:40:23.052Z,3.42
2019-05-06T19:42:53.268Z,3.33
2019-05-06T19:45:22.748Z,3.27
2019-05-06T19:47:52.392Z,3.25
2019-05-06T19:50:25.718Z,3.29
2019-05-06T19:52:52.983Z,3.34
2019-05-06T19:55:23.107Z,3.38
2019-05-06T19:57:52.691Z,3.42
2019-05-06T20:00:22.939Z,3.34
2019-05-06T20:02:52.282Z,3.16
2019-05-06T20:05:43.452Z,2.99
2019-05-06T20:08:23.241Z,2.93
2019-05-06T20:11:14.734Z,2.94
2019-05-06T20:13:44.012Z,3.12
2019-05-06T20:16:13.322Z,3.39
2019-05-06T20:18:43.158Z,3.58
2019-05-06T20:21:12.483Z,3.72
2019-05-06T20:23:42.499Z,3.70
2019-05-06T20:26:12.479Z,3.64
2019-05-06T20:28:42.923Z,3.62
2019-05-06T20:31:12.423Z,3.62
2019-05-06T20:33:42.225Z,3.57
2019-05-06T20:36:12.579Z,3.42
2019-05-06T20:38:42.380Z,3.29
2019-05-06T20:41:12.607Z,3.16
2019-05-06T20:43:42.407Z,3.04
2019-05-06T20:46:12.410Z,3.03
2019-05-06T20:48:42.224Z,3.21
2019-05-06T20:51:12.307Z,3.40
2019-05-06T20:53:43.196Z,3.68
2019-05-06T20:56:12.804Z,3.80
2019-05-06T20:58:42.176Z,3.88
2019-05-06T21:01:11.467Z,3.92
2019-05-06T21:03:42.387Z,3.90
2019-05-06T21:06:13.214Z,3.79
2019-05-06T21:08:42.787Z,3.67
2019-05-06T21:11:25.674Z,3.49
2019-05-06T21:13:43.331Z,3.32
2019-05-06T21:16:13.014Z,3.13
2019-05-06T21:18:42.406Z,2.99
2019-05-06T21:21:13.590Z,2.90
2019-05-06T21:23:42.885Z,2.76
2019-05-06T21:26:13.638Z,2.64
2019-05-06T21:28:46.282Z,2.54
2019-05-06T21:31:14.151Z,2.47
2019-05-06T21:33:43.432Z,2.45
2019-05-06T21:36:12.750Z,2.37
2019-05-06T21:38:42.682Z,2.31
2019-05-06T21:41:12.468Z,2.24
2019-05-06T21:43:46.951Z,2.21
2019-05-06T21:46:13.069Z,2.16
2019-05-06T21:48:42.470Z,2.10
2019-05-06T21:51:12.705Z,2.03
2019-05-06T21:53:42.218Z,1.97
2019-05-06T21:56:13.079Z,1.94
2019-05-06T21:58:42.873Z,1.92
2019-05-06T22:01:12.512Z,1.89
2019-05-06T22:03:43.364Z,1.86
2019-05-06T22:06:13.161Z,1.87
2019-05-06T22:08:42.551Z,1.82
2019-05-06T22:11:11.898Z,1.75
2019-05-06T22:13:42.551Z,1.75
2019-05-06T22:16:12.320Z,1.72
2019-05-06T22:18:43.245Z,1.77
2019-05-06T22:21:22.552Z,1.79
2019-05-06T22:24:04.594Z,1.80
2019-05-06T22:26:33.367Z,1.76
2019-05-06T22:29:02.721Z,1.79
2019-05-06T22:31:33.042Z,1.76
2019-05-06T22:34:02.460Z,1.80
2019-05-06T22:36:32.377Z,1.79
2019-05-06T22:39:02.601Z,1.76
2019-05-06T22:41:32.624Z,1.75
2019-05-06T22:44:13.028Z,1.76
2019-05-06T22:46:33.291Z,1.77
2019-05-06T22:49:02.733Z,1.75
2019-05-06T22:51:32.442Z,1.77
2019-05-06T22:54:02.788Z,1.76
2019-05-06T22:56:32.590Z,1.78
2019-05-06T22:59:03.284Z,1.81
2019-05-06T23:01:58.035Z,1.83
2019-05-06T23:04:28.748Z,1.88
2019-05-06T23:06:58.053Z,1.91
2019-05-06T23:09:27.454Z,1.86
2019-05-06T23:11:56.769Z,1.84
2019-05-06T23:14:31.497Z,1.82
2019-05-06T23:16:57.292Z,1.80
2019-05-06T23:19:26.597Z,1.90
2019-05-06T23:21:55.963Z,2.00
2019-05-06T23:24:25.369Z,2.03
2019-05-06T23:26:54.922Z,2.05
2019-05-06T23:29:24.222Z,2.16
2019-05-06T23:31:53.709Z,2.13
2019-05-06T23:34:23.261Z,2.11
2019-05-06T23:37:23.429Z,2.21
2019-05-06T23:40:33.169Z,2.19
2019-05-06T23:43:38.024Z,2.17
2019-05-06T23:46:42.610Z,2.17
2019-05-06T23:49:47.745Z,2.10
2019-05-06T23:52:52.269Z,2.31
2019-05-06T23:55:57.124Z,2.42
2019-05-06T23:58:24.679Z,2.45
